sensor_id;sensor_type;location;lat;lon;timestamp;P1;durP1;ratioP1;P2;durP2;ratioP2
40367;SDS011;26075;43.320;21.920;2022-07-22T00:04:05;7.47;;;5.32;;
40367;SDS011;26075;43.320;21.920;2022-07-22T00:09:06;10.25;;;6.13;;
40367;SDS011;26075;43.320;21.920;2022-07-22T00:14:07;10.40;;;5.50;;
40367;SDS011;26075;43.320;21.920;2022-07-22T00:19:08;11.93;;;5.40;;
40367;SDS011;26075;43.320;21.920;2022-07-22T00:24:09;9.27;;;4.90;;
40367;SDS011;26075;43.320;21.920;2022-07-22T00:29:10;7.25;;;5.30;;
40367;SDS011;26075;43.320;21.920;2022-07-22T00:34:11;7.65;;;5.03;;
40367;SDS011;26075;43.320;21.920;2022-07-22T00:39:12;11.00;;;6.53;;
40367;SDS011;26075;43.320;21.920;2022-07-22T00:44:15;11.40;;;6.22;;
40367;SDS011;26075;43.320;21.920;2022-07-22T00:49:16;8.65;;;5.35;;
40367;SDS011;26075;43.320;21.920;2022-07-22T00:54:17;11.88;;;5.28;;
40367;SDS011;26075;43.320;21.920;2022-07-22T00:59:19;11.93;;;5.28;;
40367;SDS011;26075;43.320;21.920;2022-07-22T01:04:20;11.25;;;5.40;;
40367;SDS011;26075;43.320;21.920;2022-07-22T01:09:21;8.15;;;5.70;;
40367;SDS011;26075;43.320;21.920;2022-07-22T01:14:22;10.52;;;5.22;;
40367;SDS011;26075;43.320;21.920;2022-07-22T01:19:23;11.40;;;5.57;;
40367;SDS011;26075;43.320;21.920;2022-07-22T01:24:24;6.60;;;4.85;;
40367;SDS011;26075;43.320;21.920;2022-07-22T01:29:25;10.93;;;5.53;;
40367;SDS011;26075;43.320;21.920;2022-07-22T01:34:26;12.65;;;6.40;;
40367;SDS011;26075;43.320;21.920;2022-07-22T01:39:27;9.15;;;5.50;;
40367;SDS011;26075;43.320;21.920;2022-07-22T01:44:30;7.05;;;5.00;;
40367;SDS011;26075;43.320;21.920;2022-07-22T01:49:31;8.50;;;5.03;;
40367;SDS011;26075;43.320;21.920;2022-07-22T01:54:33;9.25;;;4.80;;
40367;SDS011;26075;43.320;21.920;2022-07-22T01:59:34;10.32;;;5.15;;
40367;SDS011;26075;43.320;21.920;2022-07-22T02:04:35;9.30;;;5.20;;
40367;SDS011;26075;43.320;21.920;2022-07-22T02:09:36;9.80;;;5.60;;
40367;SDS011;26075;43.320;21.920;2022-07-22T02:14:37;8.95;;;6.03;;
40367;SDS011;26075;43.320;21.920;2022-07-22T02:19:38;10.00;;;5.57;;
40367;SDS011;26075;43.320;21.920;2022-07-22T02:24:39;9.43;;;5.20;;
40367;SDS011;26075;43.320;21.920;2022-07-22T02:29:40;8.13;;;4.43;;
40367;SDS011;26075;43.320;21.920;2022-07-22T02:34:41;7.68;;;5.20;;
40367;SDS011;26075;43.320;21.920;2022-07-22T02:39:42;11.70;;;5.20;;
40367;SDS011;26075;43.320;21.920;2022-07-22T02:44:43;8.15;;;5.32;;
40367;SDS011;26075;43.320;21.920;2022-07-22T02:49:44;7.55;;;5.20;;
40367;SDS011;26075;43.320;21.920;2022-07-22T02:54:46;7.65;;;5.32;;
40367;SDS011;26075;43.320;21.920;2022-07-22T02:59:47;7.88;;;4.85;;
40367;SDS011;26075;43.320;21.920;2022-07-22T03:04:48;9.20;;;5.30;;
40367;SDS011;26075;43.320;21.920;2022-07-22T03:09:49;7.60;;;5.05;;
40367;SDS011;26075;43.320;21.920;2022-07-22T03:14:50;10.35;;;4.75;;
40367;SDS011;26075;43.320;21.920;2022-07-22T03:19:51;7.75;;;4.75;;
40367;SDS011;26075;43.320;21.920;2022-07-22T03:24:52;12.80;;;5.45;;
40367;SDS011;26075;43.320;21.920;2022-07-22T03:29:53;6.88;;;4.63;;
40367;SDS011;26075;43.320;21.920;2022-07-22T03:34:54;8.35;;;4.80;;
40367;SDS011;26075;43.320;21.920;2022-07-22T03:39:55;8.80;;;4.85;;
40367;SDS011;26075;43.320;21.920;2022-07-22T03:44:56;7.53;;;5.10;;
40367;SDS011;26075;43.320;21.920;2022-07-22T03:49:57;9.57;;;4.43;;
40367;SDS011;26075;43.320;21.920;2022-07-22T03:54:58;7.93;;;5.47;;
40367;SDS011;26075;43.320;21.920;2022-07-22T03:59:59;7.22;;;5.05;;
40367;SDS011;26075;43.320;21.920;2022-07-22T04:05:00;10.65;;;5.82;;
40367;SDS011;26075;43.320;21.920;2022-07-22T04:10:01;7.07;;;4.72;;
40367;SDS011;26075;43.320;21.920;2022-07-22T04:15:05;10.63;;;4.85;;
40367;SDS011;26075;43.320;21.920;2022-07-22T04:20:07;10.63;;;5.97;;
40367;SDS011;26075;43.320;21.920;2022-07-22T04:25:08;11.48;;;6.07;;
40367;SDS011;26075;43.320;21.920;2022-07-22T04:30:09;11.48;;;6.22;;
40367;SDS011;26075;43.320;21.920;2022-07-22T04:35:10;8.40;;;5.18;;
40367;SDS011;26075;43.320;21.920;2022-07-22T04:40:11;13.70;;;6.72;;
40367;SDS011;26075;43.320;21.920;2022-07-22T04:45:12;10.93;;;6.22;;
40367;SDS011;26075;43.320;21.920;2022-07-22T04:50:14;10.02;;;6.95;;
40367;SDS011;26075;43.320;21.920;2022-07-22T04:55:15;14.32;;;6.70;;
40367;SDS011;26075;43.320;21.920;2022-07-22T05:00:16;16.10;;;7.30;;
40367;SDS011;26075;43.320;21.920;2022-07-22T05:05:17;15.93;;;6.15;;
40367;SDS011;26075;43.320;21.920;2022-07-22T05:10:18;17.48;;;7.00;;
40367;SDS011;26075;43.320;21.920;2022-07-22T05:15:19;11.27;;;5.72;;
40367;SDS011;26075;43.320;21.920;2022-07-22T05:20:20;10.23;;;5.47;;
40367;SDS011;26075;43.320;21.920;2022-07-22T05:25:21;9.15;;;5.43;;
40367;SDS011;26075;43.320;21.920;2022-07-22T05:30:22;9.15;;;5.75;;
40367;SDS011;26075;43.320;21.920;2022-07-22T05:35:23;10.73;;;5.80;;
40367;SDS011;26075;43.320;21.920;2022-07-22T05:40:24;11.38;;;5.13;;
40367;SDS011;26075;43.320;21.920;2022-07-22T05:45:25;12.00;;;6.00;;
40367;SDS011;26075;43.320;21.920;2022-07-22T05:50:26;14.10;;;6.55;;
40367;SDS011;26075;43.320;21.920;2022-07-22T05:55:27;16.27;;;5.95;;
40367;SDS011;26075;43.320;21.920;2022-07-22T06:00:29;14.88;;;7.50;;
40367;SDS011;26075;43.320;21.920;2022-07-22T06:05:30;11.65;;;7.05;;
40367;SDS011;26075;43.320;21.920;2022-07-22T06:10:31;12.65;;;6.38;;
40367;SDS011;26075;43.320;21.920;2022-07-22T06:15:32;12.32;;;6.95;;
40367;SDS011;26075;43.320;21.920;2022-07-22T06:20:33;17.25;;;5.95;;
40367;SDS011;26075;43.320;21.920;2022-07-22T06:25:34;13.52;;;6.65;;
40367;SDS011;26075;43.320;21.920;2022-07-22T06:30:35;12.77;;;6.43;;
40367;SDS011;26075;43.320;21.920;2022-07-22T06:35:37;13.18;;;6.32;;
40367;SDS011;26075;43.320;21.920;2022-07-22T06:40:39;13.30;;;5.80;;
40367;SDS011;26075;43.320;21.920;2022-07-22T06:45:40;9.10;;;6.35;;
40367;SDS011;26075;43.320;21.920;2022-07-22T06:50:41;10.88;;;6.00;;
40367;SDS011;26075;43.320;21.920;2022-07-22T06:55:42;17.13;;;6.07;;
40367;SDS011;26075;43.320;21.920;2022-07-22T07:00:43;11.52;;;5.88;;
40367;SDS011;26075;43.320;21.920;2022-07-22T07:05:44;10.45;;;6.32;;
40367;SDS011;26075;43.320;21.920;2022-07-22T07:10:45;11.05;;;6.68;;
40367;SDS011;26075;43.320;21.920;2022-07-22T07:15:46;14.25;;;6.97;;
40367;SDS011;26075;43.320;21.920;2022-07-22T07:20:47;19.73;;;7.68;;
40367;SDS011;26075;43.320;21.920;2022-07-22T07:25:48;15.07;;;7.00;;
40367;SDS011;26075;43.320;21.920;2022-07-22T07:30:49;20.85;;;7.90;;
40367;SDS011;26075;43.320;21.920;2022-07-22T07:35:50;17.85;;;6.55;;
40367;SDS011;26075;43.320;21.920;2022-07-22T07:40:52;15.45;;;6.38;;
40367;SDS011;26075;43.320;21.920;2022-07-22T07:45:53;12.18;;;6.53;;
40367;SDS011;26075;43.320;21.920;2022-07-22T07:50:54;12.55;;;6.47;;
40367;SDS011;26075;43.320;21.920;2022-07-22T07:55:55;15.68;;;7.40;;
40367;SDS011;26075;43.320;21.920;2022-07-22T08:00:56;13.63;;;7.78;;
40367;SDS011;26075;43.320;21.920;2022-07-22T08:05:57;18.05;;;8.40;;
40367;SDS011;26075;43.320;21.920;2022-07-22T08:10:59;18.38;;;7.57;;
40367;SDS011;26075;43.320;21.920;2022-07-22T08:16:00;10.82;;;6.00;;
40367;SDS011;26075;43.320;21.920;2022-07-22T08:21:02;23.70;;;6.65;;
40367;SDS011;26075;43.320;21.920;2022-07-22T08:26:03;8.32;;;5.93;;
40367;SDS011;26075;43.320;21.920;2022-07-22T08:31:04;15.88;;;5.75;;
40367;SDS011;26075;43.320;21.920;2022-07-22T08:36:05;11.43;;;6.15;;
40367;SDS011;26075;43.320;21.920;2022-07-22T08:41:06;10.98;;;5.28;;
40367;SDS011;26075;43.320;21.920;2022-07-22T08:46:07;7.50;;;5.00;;
40367;SDS011;26075;43.320;21.920;2022-07-22T08:51:08;10.55;;;5.90;;
40367;SDS011;26075;43.320;21.920;2022-07-22T08:56:11;14.20;;;5.50;;
40367;SDS011;26075;43.320;21.920;2022-07-22T09:01:14;12.00;;;5.75;;
40367;SDS011;26075;43.320;21.920;2022-07-22T09:06:16;9.85;;;5.35;;
40367;SDS011;26075;43.320;21.920;2022-07-22T09:11:17;7.85;;;4.93;;
40367;SDS011;26075;43.320;21.920;2022-07-22T09:16:37;16.58;;;5.53;;
40367;SDS011;26075;43.320;21.920;2022-07-22T09:21:39;12.45;;;6.93;;
40367;SDS011;26075;43.320;21.920;2022-07-22T09:26:40;11.35;;;4.97;;
40367;SDS011;26075;43.320;21.920;2022-07-22T09:31:41;12.40;;;5.65;;
40367;SDS011;26075;43.320;21.920;2022-07-22T09:36:55;16.00;;;6.28;;
40367;SDS011;26075;43.320;21.920;2022-07-22T09:42:00;9.77;;;5.88;;
40367;SDS011;26075;43.320;21.920;2022-07-22T09:52:02;10.50;;;3.97;;
40367;SDS011;26075;43.320;21.920;2022-07-22T09:57:03;6.93;;;4.20;;
40367;SDS011;26075;43.320;21.920;2022-07-22T10:02:04;10.63;;;3.50;;
40367;SDS011;26075;43.320;21.920;2022-07-22T10:07:06;9.55;;;3.90;;
40367;SDS011;26075;43.320;21.920;2022-07-22T10:12:07;12.13;;;3.72;;
40367;SDS011;26075;43.320;21.920;2022-07-22T10:17:09;5.93;;;2.95;;
40367;SDS011;26075;43.320;21.920;2022-07-22T10:32:49;10.85;;;3.95;;
40367;SDS011;26075;43.320;21.920;2022-07-22T10:38:06;8.40;;;3.47;;
40367;SDS011;26075;43.320;21.920;2022-07-22T10:43:08;12.27;;;4.03;;
40367;SDS011;26075;43.320;21.920;2022-07-22T10:48:10;8.02;;;3.67;;
40367;SDS011;26075;43.320;21.920;2022-07-22T10:53:16;18.88;;;4.35;;
40367;SDS011;26075;43.320;21.920;2022-07-22T11:03:35;10.32;;;4.15;;
40367;SDS011;26075;43.320;21.920;2022-07-22T11:08:36;7.65;;;4.18;;
40367;SDS011;26075;43.320;21.920;2022-07-22T11:13:38;5.30;;;3.55;;
40367;SDS011;26075;43.320;21.920;2022-07-22T11:18:46;6.93;;;3.90;;
40367;SDS011;26075;43.320;21.920;2022-07-22T11:23:49;7.40;;;3.63;;
40367;SDS011;26075;43.320;21.920;2022-07-22T11:28:51;7.57;;;4.45;;
40367;SDS011;26075;43.320;21.920;2022-07-22T11:33:52;6.20;;;3.90;;
40367;SDS011;26075;43.320;21.920;2022-07-22T11:39:04;7.30;;;4.22;;
40367;SDS011;26075;43.320;21.920;2022-07-22T11:44:06;8.88;;;4.25;;
40367;SDS011;26075;43.320;21.920;2022-07-22T11:49:08;8.55;;;4.30;;
40367;SDS011;26075;43.320;21.920;2022-07-22T11:54:09;9.98;;;3.92;;
40367;SDS011;26075;43.320;21.920;2022-07-22T11:59:12;7.07;;;3.83;;
40367;SDS011;26075;43.320;21.920;2022-07-22T12:04:17;8.15;;;3.63;;
40367;SDS011;26075;43.320;21.920;2022-07-22T12:09:22;7.07;;;3.78;;
40367;SDS011;26075;43.320;21.920;2022-07-22T12:14:24;12.13;;;4.07;;
40367;SDS011;26075;43.320;21.920;2022-07-22T12:19:26;8.65;;;4.20;;
40367;SDS011;26075;43.320;21.920;2022-07-22T12:34:39;10.10;;;3.80;;
40367;SDS011;26075;43.320;21.920;2022-07-22T12:39:58;10.52;;;3.75;;
40367;SDS011;26075;43.320;21.920;2022-07-22T12:50:14;5.85;;;3.38;;
40367;SDS011;26075;43.320;21.920;2022-07-22T12:55:16;7.35;;;3.70;;
40367;SDS011;26075;43.320;21.920;2022-07-22T13:00:19;5.40;;;3.15;;
40367;SDS011;26075;43.320;21.920;2022-07-22T13:05:20;6.55;;;4.10;;
40367;SDS011;26075;43.320;21.920;2022-07-22T13:10:22;6.63;;;3.50;;
40367;SDS011;26075;43.320;21.920;2022-07-22T13:15:23;8.88;;;3.72;;
40367;SDS011;26075;43.320;21.920;2022-07-22T13:20:24;10.43;;;3.72;;
40367;SDS011;26075;43.320;21.920;2022-07-22T13:25:25;9.52;;;3.78;;
40367;SDS011;26075;43.320;21.920;2022-07-22T13:30:27;10.95;;;3.65;;
40367;SDS011;26075;43.320;21.920;2022-07-22T13:35:28;5.78;;;3.80;;
40367;SDS011;26075;43.320;21.920;2022-07-22T13:40:29;6.90;;;3.42;;
40367;SDS011;26075;43.320;21.920;2022-07-22T13:45:30;7.78;;;3.30;;
40367;SDS011;26075;43.320;21.920;2022-07-22T13:50:31;7.13;;;3.72;;
40367;SDS011;26075;43.320;21.920;2022-07-22T13:55:32;9.23;;;5.03;;
40367;SDS011;26075;43.320;21.920;2022-07-22T14:00:33;8.32;;;4.03;;
40367;SDS011;26075;43.320;21.920;2022-07-22T14:05:34;8.65;;;3.90;;
40367;SDS011;26075;43.320;21.920;2022-07-22T14:10:35;8.88;;;4.53;;
40367;SDS011;26075;43.320;21.920;2022-07-22T14:15:37;6.63;;;3.65;;
40367;SDS011;26075;43.320;21.920;2022-07-22T14:20:38;8.48;;;3.60;;
40367;SDS011;26075;43.320;21.920;2022-07-22T14:25:40;8.85;;;3.95;;
40367;SDS011;26075;43.320;21.920;2022-07-22T14:30:41;6.60;;;3.33;;
40367;SDS011;26075;43.320;21.920;2022-07-22T14:35:42;10.48;;;4.50;;
40367;SDS011;26075;43.320;21.920;2022-07-22T14:40:43;8.60;;;3.60;;
40367;SDS011;26075;43.320;21.920;2022-07-22T14:45:44;7.78;;;3.83;;
40367;SDS011;26075;43.320;21.920;2022-07-22T14:50:45;11.00;;;4.10;;
40367;SDS011;26075;43.320;21.920;2022-07-22T14:55:46;7.85;;;3.55;;
40367;SDS011;26075;43.320;21.920;2022-07-22T15:00:47;6.78;;;3.35;;
40367;SDS011;26075;43.320;21.920;2022-07-22T15:05:48;6.93;;;3.50;;
40367;SDS011;26075;43.320;21.920;2022-07-22T15:10:49;11.68;;;4.18;;
40367;SDS011;26075;43.320;21.920;2022-07-22T15:15:50;6.43;;;4.00;;
40367;SDS011;26075;43.320;21.920;2022-07-22T15:20:51;8.35;;;3.03;;
40367;SDS011;26075;43.320;21.920;2022-07-22T15:25:57;5.65;;;3.17;;
40367;SDS011;26075;43.320;21.920;2022-07-22T15:30:58;10.95;;;4.70;;
40367;SDS011;26075;43.320;21.920;2022-07-22T15:35:59;15.57;;;5.15;;
40367;SDS011;26075;43.320;21.920;2022-07-22T15:41:01;10.90;;;5.40;;
40367;SDS011;26075;43.320;21.920;2022-07-22T15:46:02;11.32;;;5.18;;
40367;SDS011;26075;43.320;21.920;2022-07-22T15:51:03;8.00;;;3.97;;
40367;SDS011;26075;43.320;21.920;2022-07-22T15:56:05;10.30;;;3.63;;
40367;SDS011;26075;43.320;21.920;2022-07-22T16:01:06;12.45;;;5.20;;
40367;SDS011;26075;43.320;21.920;2022-07-22T16:06:07;8.77;;;5.63;;
40367;SDS011;26075;43.320;21.920;2022-07-22T16:11:08;12.45;;;5.35;;
40367;SDS011;26075;43.320;21.920;2022-07-22T16:16:09;8.95;;;5.75;;
40367;SDS011;26075;43.320;21.920;2022-07-22T16:21:10;12.60;;;4.32;;
40367;SDS011;26075;43.320;21.920;2022-07-22T16:26:11;17.95;;;4.40;;
40367;SDS011;26075;43.320;21.920;2022-07-22T16:31:12;13.50;;;5.25;;
40367;SDS011;26075;43.320;21.920;2022-07-22T16:36:13;13.27;;;4.13;;
40367;SDS011;26075;43.320;21.920;2022-07-22T16:41:14;8.52;;;4.90;;
40367;SDS011;26075;43.320;21.920;2022-07-22T16:46:15;9.32;;;4.10;;
40367;SDS011;26075;43.320;21.920;2022-07-22T16:51:16;9.85;;;4.55;;
40367;SDS011;26075;43.320;21.920;2022-07-22T16:56:17;9.70;;;3.53;;
40367;SDS011;26075;43.320;21.920;2022-07-22T17:01:18;10.50;;;3.53;;
40367;SDS011;26075;43.320;21.920;2022-07-22T17:06:19;10.55;;;5.07;;
40367;SDS011;26075;43.320;21.920;2022-07-22T17:11:20;12.25;;;3.83;;
40367;SDS011;26075;43.320;21.920;2022-07-22T17:16:22;9.95;;;3.72;;
40367;SDS011;26075;43.320;21.920;2022-07-22T17:21:23;7.25;;;3.40;;
40367;SDS011;26075;43.320;21.920;2022-07-22T17:26:24;6.80;;;3.83;;
40367;SDS011;26075;43.320;21.920;2022-07-22T17:31:26;8.38;;;3.75;;
40367;SDS011;26075;43.320;21.920;2022-07-22T17:36:27;13.23;;;4.20;;
40367;SDS011;26075;43.320;21.920;2022-07-22T17:41:28;17.92;;;4.22;;
40367;SDS011;26075;43.320;21.920;2022-07-22T17:46:29;11.95;;;4.75;;
40367;SDS011;26075;43.320;21.920;2022-07-22T17:51:30;14.75;;;4.10;;
40367;SDS011;26075;43.320;21.920;2022-07-22T17:56:31;9.32;;;4.72;;
40367;SDS011;26075;43.320;21.920;2022-07-22T18:01:32;7.07;;;3.50;;
40367;SDS011;26075;43.320;21.920;2022-07-22T18:06:33;19.77;;;9.45;;
40367;SDS011;26075;43.320;21.920;2022-07-22T18:11:34;17.70;;;7.35;;
40367;SDS011;26075;43.320;21.920;2022-07-22T18:16:36;13.57;;;7.93;;
40367;SDS011;26075;43.320;21.920;2022-07-22T18:21:37;15.38;;;6.47;;
40367;SDS011;26075;43.320;21.920;2022-07-22T18:26:38;12.13;;;5.60;;
40367;SDS011;26075;43.320;21.920;2022-07-22T18:31:39;15.10;;;5.32;;
40367;SDS011;26075;43.320;21.920;2022-07-22T18:36:40;11.20;;;5.75;;
40367;SDS011;26075;43.320;21.920;2022-07-22T18:41:41;15.82;;;6.18;;
40367;SDS011;26075;43.320;21.920;2022-07-22T18:46:43;11.10;;;5.68;;
40367;SDS011;26075;43.320;21.920;2022-07-22T18:51:44;12.52;;;4.88;;
40367;SDS011;26075;43.320;21.920;2022-07-22T18:56:45;10.98;;;4.65;;
40367;SDS011;26075;43.320;21.920;2022-07-22T19:01:46;9.98;;;4.60;;
40367;SDS011;26075;43.320;21.920;2022-07-22T19:06:47;10.38;;;4.85;;
40367;SDS011;26075;43.320;21.920;2022-07-22T19:11:48;12.52;;;6.43;;
40367;SDS011;26075;43.320;21.920;2022-07-22T19:16:49;15.32;;;6.15;;
40367;SDS011;26075;43.320;21.920;2022-07-22T19:21:50;10.80;;;5.82;;
40367;SDS011;26075;43.320;21.920;2022-07-22T19:26:51;15.02;;;6.90;;
40367;SDS011;26075;43.320;21.920;2022-07-22T19:31:52;16.38;;;6.03;;
40367;SDS011;26075;43.320;21.920;2022-07-22T19:36:53;11.77;;;5.40;;
40367;SDS011;26075;43.320;21.920;2022-07-22T19:41:54;19.20;;;6.28;;
40367;SDS011;26075;43.320;21.920;2022-07-22T19:46:55;13.38;;;6.15;;
40367;SDS011;26075;43.320;21.920;2022-07-22T19:51:56;11.45;;;6.25;;
40367;SDS011;26075;43.320;21.920;2022-07-22T19:56:57;14.43;;;6.50;;
40367;SDS011;26075;43.320;21.920;2022-07-22T20:01:58;16.00;;;6.38;;
40367;SDS011;26075;43.320;21.920;2022-07-22T20:06:59;13.45;;;5.90;;
40367;SDS011;26075;43.320;21.920;2022-07-22T20:12:00;14.90;;;8.77;;
40367;SDS011;26075;43.320;21.920;2022-07-22T20:17:01;13.57;;;7.90;;
40367;SDS011;26075;43.320;21.920;2022-07-22T20:22:02;10.85;;;6.95;;
40367;SDS011;26075;43.320;21.920;2022-07-22T20:27:04;15.50;;;5.85;;
40367;SDS011;26075;43.320;21.920;2022-07-22T20:32:05;16.17;;;7.47;;
40367;SDS011;26075;43.320;21.920;2022-07-22T20:37:06;19.08;;;12.68;;
40367;SDS011;26075;43.320;21.920;2022-07-22T20:42:07;13.88;;;9.90;;
40367;SDS011;26075;43.320;21.920;2022-07-22T20:47:09;13.15;;;7.28;;
40367;SDS011;26075;43.320;21.920;2022-07-22T20:52:10;14.95;;;6.55;;
40367;SDS011;26075;43.320;21.920;2022-07-22T20:57:11;17.58;;;6.90;;
40367;SDS011;26075;43.320;21.920;2022-07-22T21:02:12;10.77;;;6.65;;
40367;SDS011;26075;43.320;21.920;2022-07-22T21:07:15;16.80;;;6.88;;
40367;SDS011;26075;43.320;21.920;2022-07-22T21:12:16;13.63;;;6.10;;
40367;SDS011;26075;43.320;21.920;2022-07-22T21:17:17;11.32;;;6.05;;
40367;SDS011;26075;43.320;21.920;2022-07-22T21:22:19;14.13;;;5.95;;
40367;SDS011;26075;43.320;21.920;2022-07-22T21:27:20;12.55;;;6.80;;
40367;SDS011;26075;43.320;21.920;2022-07-22T21:32:21;9.65;;;5.28;;
40367;SDS011;26075;43.320;21.920;2022-07-22T21:37:22;9.90;;;5.78;;
40367;SDS011;26075;43.320;21.920;2022-07-22T21:42:23;12.05;;;6.40;;
40367;SDS011;26075;43.320;21.920;2022-07-22T21:47:24;10.57;;;6.95;;
40367;SDS011;26075;43.320;21.920;2022-07-22T21:52:26;10.48;;;6.75;;
40367;SDS011;26075;43.320;21.920;2022-07-22T21:57:27;10.82;;;6.60;;
40367;SDS011;26075;43.320;21.920;2022-07-22T22:02:28;11.85;;;7.10;;
40367;SDS011;26075;43.320;21.920;2022-07-22T22:07:29;12.70;;;7.53;;
40367;SDS011;26075;43.320;21.920;2022-07-22T22:12:30;11.07;;;6.55;;
40367;SDS011;26075;43.320;21.920;2022-07-22T22:17:31;11.85;;;6.82;;
40367;SDS011;26075;43.320;21.920;2022-07-22T22:22:32;15.50;;;6.80;;
40367;SDS011;26075;43.320;21.920;2022-07-22T22:27:33;15.25;;;7.18;;
40367;SDS011;26075;43.320;21.920;2022-07-22T22:32:34;9.93;;;6.80;;
40367;SDS011;26075;43.320;21.920;2022-07-22T22:37:35;11.52;;;6.80;;
40367;SDS011;26075;43.320;21.920;2022-07-22T22:42:36;14.30;;;7.43;;
40367;SDS011;26075;43.320;21.920;2022-07-22T22:47:37;11.55;;;6.32;;
40367;SDS011;26075;43.320;21.920;2022-07-22T22:52:38;9.95;;;6.00;;
40367;SDS011;26075;43.320;21.920;2022-07-22T22:57:39;9.23;;;5.03;;
40367;SDS011;26075;43.320;21.920;2022-07-22T23:02:41;12.20;;;6.95;;
40367;SDS011;26075;43.320;21.920;2022-07-22T23:07:42;12.52;;;5.90;;
40367;SDS011;26075;43.320;21.920;2022-07-22T23:12:43;10.02;;;5.88;;
40367;SDS011;26075;43.320;21.920;2022-07-22T23:17:44;10.93;;;5.32;;
40367;SDS011;26075;43.320;21.920;2022-07-22T23:22:45;10.82;;;5.07;;
40367;SDS011;26075;43.320;21.920;2022-07-22T23:27:46;9.65;;;5.10;;
40367;SDS011;26075;43.320;21.920;2022-07-22T23:32:47;8.27;;;5.40;;
40367;SDS011;26075;43.320;21.920;2022-07-22T23:37:48;9.18;;;5.32;;
40367;SDS011;26075;43.320;21.920;2022-07-22T23:42:49;8.43;;;5.43;;
40367;SDS011;26075;43.320;21.920;2022-07-22T23:47:50;11.52;;;5.28;;
40367;SDS011;26075;43.320;21.920;2022-07-22T23:52:51;8.07;;;5.60;;
40367;SDS011;26075;43.320;21.920;2022-07-22T23:57:53;9.27;;;5.10;;
